Time;durP1;ratioP1;P1;durP2;ratioP2;P2;SDS_P1;SDS_P2;PMS_P1;PMS_P2;Temp;Humidity;BMP_temperature;BMP_pressure;BME280_temperature;BME280_humidity;BME280_pressure;Samples;Min_cycle;Max_cycle;Signal;HPM_P1;HPM_P2
2024/04/08 00:00:42;;;;;;;1.90;0.77;;;17.80;75.80;;;;;;5057492;28;20033;-68
2024/04/08 00:03:08;;;;;;;0.85;0.52;;;17.80;76.00;;;;;;5065076;28;20090;-67
2024/04/08 00:05:34;;;;;;;1.15;0.50;;;17.80;76.10;;;;;;5072257;28;20141;-63
2024/04/08 00:08:01;;;;;;;1.65;1.27;;;17.80;76.20;;;;;;5079759;28;20498;-62
2024/04/08 00:10:27;;;;;;;1.35;0.52;;;17.80;76.40;;;;;;5071380;28;20109;-62
2024/04/08 00:12:53;;;;;;;0.70;0.60;;;17.70;76.40;;;;;;5069105;28;20040;-62
2024/04/08 00:15:19;;;;;;;1.10;0.70;;;17.70;76.50;;;;;;5068014;28;20090;-63
2024/04/08 00:17:45;;;;;;;0.70;0.50;;;17.70;76.60;;;;;;5069304;28;20503;-63
2024/04/08 00:20:12;;;;;;;0.82;0.50;;;17.70;76.60;;;;;;5067661;28;20036;-63
2024/04/08 00:22:39;;;;;;;0.80;0.50;;;17.70;76.60;;;;;;5068811;28;20055;-63
2024/04/08 00:25:09;;;;;;;4.20;1.45;;;17.70;76.60;;;;;;5070701;28;20455;-62
2024/04/08 00:27:35;;;;;;;1.05;0.73;;;17.70;76.70;;;;;;5062043;28;20392;-62
2024/04/08 00:30:03;;;;;;;0.52;0.52;;;17.60;76.80;;;;;;5062865;28;20434;-62
2024/04/08 00:32:30;;;;;;;1.48;0.80;;;17.60;76.90;;;;;;5069539;28;20020;-63
2024/04/08 00:34:55;;;;;;;2.05;0.50;;;17.60;76.90;;;;;;5070641;28;20889;-63
2024/04/08 00:37:21;;;;;;;0.52;0.52;;;17.60;77.00;;;;;;5070313;28;20063;-63
2024/04/08 00:39:47;;;;;;;1.40;0.70;;;17.60;77.10;;;;;;5067551;28;20032;-62
2024/04/08 00:42:13;;;;;;;0.93;0.60;;;17.60;77.00;;;;;;5067587;28;20021;-63
2024/04/08 00:44:39;;;;;;;1.00;0.90;;;17.60;77.00;;;;;;5069699;28;20032;-63
2024/04/08 00:47:07;;;;;;;0.60;0.60;;;17.60;76.90;;;;;;5070733;28;20123;-62
2024/04/08 00:49:33;;;;;;;1.23;0.50;;;17.60;76.90;;;;;;5073845;28;20023;-63
2024/04/08 00:52:00;;;;;;;1.60;1.30;;;17.60;77.00;;;;;;5070567;28;20035;-63
2024/04/08 00:54:28;;;;;;;0.70;0.70;;;17.60;77.00;;;;;;5070400;28;20028;-63
2024/04/08 00:56:55;;;;;;;2.70;0.50;;;17.50;77.00;;;;;;5066914;28;20126;-63
2024/04/08 00:59:22;;;;;;;0.55;0.50;;;17.50;77.10;;;;;;5068731;28;20522;-63
2024/04/08 01:01:49;;;;;;;0.65;0.60;;;17.50;77.30;;;;;;5070763;28;20494;-63
2024/04/08 01:04:15;;;;;;;3.72;1.00;;;17.50;77.50;;;;;;5069451;28;20483;-63
2024/04/08 01:06:42;;;;;;;0.43;0.43;;;17.40;77.60;;;;;;5065949;28;20032;-63
2024/04/08 01:09:08;;;;;;;0.95;0.63;;;17.40;77.60;;;;;;5072868;28;20031;-63
2024/04/08 01:11:35;;;;;;;1.42;0.60;;;17.40;77.60;;;;;;5074215;28;20028;-63
2024/04/08 01:14:01;;;;;;;2.20;0.77;;;17.40;77.60;;;;;;5066174;28;20561;-62
2024/04/08 01:16:28;;;;;;;1.95;1.05;;;17.40;77.50;;;;;;5065638;28;20040;-62
2024/04/08 01:20:32;;;;;;;0.60;0.50;;;17.40;77.60;;;;;;5466392;26;20340;-67
2024/04/08 01:23:00;;;;;;;0.50;0.43;;;17.30;77.60;;;;;;5441118;26;20072;-67
2024/04/08 01:25:28;;;;;;;0.50;0.50;;;17.40;77.60;;;;;;5431340;26;19999;-62
2024/04/08 01:27:54;;;;;;;3.92;0.70;;;17.40;77.60;;;;;;5431005;26;19992;-62
2024/04/08 01:30:23;;;;;;;1.13;0.77;;;17.30;77.60;;;;;;5432875;26;20003;-62
2024/04/08 01:32:50;;;;;;;0.50;0.50;;;17.30;77.70;;;;;;5446704;26;20006;-62
2024/04/08 01:35:16;;;;;;;1.13;0.40;;;17.30;77.60;;;;;;5444440;26;20345;-62
2024/04/08 01:37:42;;;;;;;1.05;0.70;;;17.30;77.60;;;;;;5441346;26;20030;-62
2024/04/08 01:40:09;;;;;;;0.80;0.70;;;17.30;77.60;;;;;;5454231;26;19999;-62
2024/04/08 01:42:34;;;;;;;1.42;1.00;;;17.30;77.70;;;;;;5446162;26;20003;-63
2024/04/08 01:45:00;;;;;;;0.63;0.50;;;17.30;77.90;;;;;;5447198;26;20442;-62
2024/04/08 01:47:26;;;;;;;0.50;0.50;;;17.20;77.90;;;;;;5440853;26;19999;-62
2024/04/08 01:49:52;;;;;;;0.85;0.75;;;17.20;77.90;;;;;;5446327;26;19996;-62
2024/04/08 01:52:18;;;;;;;0.50;0.40;;;17.20;77.90;;;;;;5438987;26;20003;-62
2024/04/08 01:54:44;;;;;;;0.50;0.40;;;17.20;77.80;;;;;;5440032;26;20341;-62
2024/04/08 01:57:10;;;;;;;0.60;0.60;;;17.20;77.90;;;;;;5446691;26;20012;-62
2024/04/08 01:59:36;;;;;;;2.47;0.82;;;17.10;77.90;;;;;;5439356;26;20037;-62
2024/04/08 02:02:02;;;;;;;0.50;0.50;;;17.10;78.00;;;;;;5441641;26;20041;-62
2024/04/08 02:04:28;;;;;;;0.50;0.30;;;17.10;78.10;;;;;;5450935;26;19999;-62
2024/04/08 02:06:54;;;;;;;0.63;0.40;;;17.10;78.20;;;;;;5447372;26;20047;-62
2024/04/08 02:09:20;;;;;;;0.57;0.50;;;17.00;78.20;;;;;;5432601;26;20035;-62
2024/04/08 02:11:45;;;;;;;1.35;0.45;;;17.00;78.30;;;;;;5436204;26;21159;-62
2024/04/08 02:14:11;;;;;;;0.63;0.40;;;17.00;78.20;;;;;;5450909;26;20004;-62
2024/04/08 02:16:37;;;;;;;0.57;0.50;;;17.00;78.30;;;;;;5446939;26;20948;-62
2024/04/08 02:19:03;;;;;;;2.60;0.50;;;17.00;78.40;;;;;;5429808;26;20015;-62
2024/04/08 02:21:29;;;;;;;0.50;0.50;;;17.00;78.40;;;;;;5429715;26;20051;-63
2024/04/08 02:23:55;;;;;;;0.38;0.38;;;17.00;78.50;;;;;;5430447;26;20076;-63
2024/04/08 02:26:21;;;;;;;0.95;0.68;;;17.00;78.50;;;;;;5430770;26;20017;-63
2024/04/08 02:28:47;;;;;;;0.73;0.73;;;17.00;78.50;;;;;;5429048;26;20003;-63
2024/04/08 02:31:13;;;;;;;0.52;0.52;;;16.90;78.60;;;;;;5427228;26;20009;-62
2024/04/08 02:33:40;;;;;;;0.80;0.40;;;16.90;78.60;;;;;;5414169;26;20243;-62
2024/04/08 02:36:06;;;;;;;0.50;0.50;;;16.90;78.60;;;;;;5419062;26;20003;-68
2024/04/08 02:38:33;;;;;;;0.63;0.40;;;16.90;78.70;;;;;;5413670;26;20051;-68
2024/04/08 02:41:00;;;;;;;0.50;0.50;;;16.90;78.70;;;;;;5419512;26;19999;-68
2024/04/08 02:43:26;;;;;;;1.58;0.63;;;16.90;78.70;;;;;;5415018;26;20013;-68
2024/04/08 02:45:52;;;;;;;2.08;0.65;;;16.90;78.80;;;;;;5417164;26;20000;-67
2024/04/08 02:48:21;;;;;;;0.68;0.68;;;16.90;78.80;;;;;;5428432;26;19999;-68
2024/04/08 02:50:47;;;;;;;4.10;1.17;;;16.90;78.80;;;;;;5413529;26;19999;-68
2024/04/08 02:53:12;;;;;;;1.20;0.60;;;16.90;78.80;;;;;;5417135;26;20004;-67
2024/04/08 02:55:38;;;;;;;1.35;0.77;;;16.90;78.80;;;;;;5411951;26;20000;-67
2024/04/08 02:58:04;;;;;;;1.92;0.85;;;16.90;78.80;;;;;;5421844;26;20335;-67
2024/04/08 03:00:30;;;;;;;2.60;1.15;;;16.80;78.80;;;;;;5424994;26;19999;-68
2024/04/08 03:02:57;;;;;;;0.63;0.60;;;16.80;79.00;;;;;;5421425;26;20472;-67
2024/04/08 03:05:22;;;;;;;0.75;0.63;;;16.80;79.00;;;;;;5422926;26;20467;-67
2024/04/08 03:07:51;;;;;;;0.80;0.60;;;16.80;79.10;;;;;;5421188;26;20004;-67
2024/04/08 03:10:17;;;;;;;0.75;0.57;;;16.80;79.00;;;;;;5426321;26;20076;-67
2024/04/08 03:12:44;;;;;;;0.90;0.60;;;16.80;79.00;;;;;;5415643;26;20012;-67
2024/04/08 03:15:09;;;;;;;1.02;0.55;;;16.80;78.90;;;;;;5418247;26;20516;-62
2024/04/08 03:17:36;;;;;;;0.50;0.50;;;16.80;78.80;;;;;;5423038;26;20137;-62
2024/04/08 03:20:04;;;;;;;0.85;0.85;;;16.80;78.70;;;;;;5454187;26;19995;-62
2024/04/08 03:22:30;;;;;;;0.60;0.50;;;16.80;78.80;;;;;;5434145;26;20002;-62
2024/04/08 03:24:56;;;;;;;0.70;0.70;;;16.80;78.80;;;;;;5450604;26;20015;-62
2024/04/08 03:27:22;;;;;;;2.25;0.75;;;16.80;78.80;;;;;;5457762;26;20480;-62
2024/04/08 03:29:50;;;;;;;0.70;0.63;;;16.80;78.80;;;;;;5465744;26;20076;-62
2024/04/08 03:32:16;;;;;;;0.93;0.70;;;16.80;79.00;;;;;;5457302;26;20465;-62
2024/04/08 03:34:43;;;;;;;1.65;0.85;;;16.70;79.10;;;;;;5453119;26;20485;-62
2024/04/08 03:37:09;;;;;;;1.05;0.80;;;16.70;79.30;;;;;;5417456;26;20018;-62
2024/04/08 03:39:35;;;;;;;3.08;1.23;;;16.70;79.30;;;;;;5430652;26;20071;-62
2024/04/08 03:42:01;;;;;;;0.77;0.60;;;16.70;79.30;;;;;;5439067;26;20464;-63
2024/04/08 03:44:27;;;;;;;0.50;0.45;;;16.70;79.30;;;;;;5452257;26;20006;-62
2024/04/08 03:46:53;;;;;;;0.90;0.70;;;16.70;79.40;;;;;;5428146;26;20004;-62
2024/04/08 03:49:19;;;;;;;1.60;0.90;;;16.70;79.40;;;;;;5462779;26;20014;-62
2024/04/08 03:51:45;;;;;;;0.70;0.70;;;16.70;79.40;;;;;;5465995;26;20429;-63
2024/04/08 03:54:11;;;;;;;1.00;0.70;;;16.70;79.40;;;;;;5456388;26;19999;-63
2024/04/08 03:56:37;;;;;;;0.70;0.55;;;16.70;79.40;;;;;;5455833;26;20002;-63
2024/04/08 03:59:04;;;;;;;1.15;0.63;;;16.70;79.50;;;;;;5451801;26;20003;-62
2024/04/08 04:01:30;;;;;;;1.17;0.88;;;16.70;79.60;;;;;;5462892;26;20537;-62
2024/04/08 04:03:56;;;;;;;0.95;0.50;;;16.70;79.60;;;;;;5461553;26;20055;-62
2024/04/08 04:06:21;;;;;;;2.28;0.85;;;16.70;79.50;;;;;;5455072;26;20003;-63
2024/04/08 04:08:48;;;;;;;1.08;0.73;;;16.70;79.50;;;;;;5461235;26;20017;-64
2024/04/08 04:11:14;;;;;;;1.02;0.63;;;16.70;79.60;;;;;;5457814;26;19995;-63
2024/04/08 04:13:40;;;;;;;0.77;0.73;;;16.70;79.60;;;;;;5427443;26;20002;-63
2024/04/08 04:16:06;;;;;;;1.27;0.80;;;16.70;79.60;;;;;;5463069;26;20557;-63
2024/04/08 04:18:33;;;;;;;1.27;0.80;;;16.70;79.70;;;;;;5457546;26;20014;-63
2024/04/08 04:20:59;;;;;;;0.80;0.80;;;16.70;79.80;;;;;;5445751;26;20015;-63
2024/04/08 04:23:25;;;;;;;1.50;0.90;;;16.60;79.70;;;;;;5418800;26;20353;-63
2024/04/08 04:25:57;;;;;;;1.25;1.13;;;16.60;79.80;;;;;;5450990;26;20038;-63
2024/04/08 04:28:23;;;;;;;0.57;0.57;;;16.60;79.90;;;;;;5435592;26;19995;-67
2024/04/08 04:30:57;;;;;;;0.88;0.70;;;16.60;80.00;;;;;;5386799;26;20010;-67
2024/04/08 04:33:24;;;;;;;2.05;0.85;;;16.60;80.00;;;;;;5458846;26;20003;-67
2024/04/08 04:35:54;;;;;;;1.90;0.90;;;16.60;80.00;;;;;;5459143;26;19998;-67
2024/04/08 04:38:20;;;;;;;2.15;0.93;;;16.60;80.10;;;;;;5454431;26;20034;-67
2024/04/08 04:40:46;;;;;;;1.10;0.80;;;16.60;80.00;;;;;;5463244;26;20476;-67
2024/04/08 04:43:12;;;;;;;1.08;0.80;;;16.60;80.00;;;;;;5460777;26;20035;-67
2024/04/08 04:45:39;;;;;;;1.85;0.45;;;16.60;80.10;;;;;;5464414;26;20072;-67
2024/04/08 04:48:05;;;;;;;0.70;0.45;;;16.60;80.20;;;;;;5417643;26;20078;-68
2024/04/08 04:50:34;;;;;;;1.15;0.70;;;16.60;80.20;;;;;;5461943;26;19999;-67
2024/04/08 04:53:00;;;;;;;1.20;0.85;;;16.50;80.20;;;;;;5427617;26;20075;-62
2024/04/08 04:55:26;;;;;;;1.02;0.93;;;16.60;80.30;;;;;;5425895;26;20010;-62
2024/04/08 04:57:52;;;;;;;1.98;0.80;;;16.50;80.30;;;;;;5465913;26;20021;-63
2024/04/08 05:00:17;;;;;;;0.73;0.52;;;16.60;80.30;;;;;;5467042;26;20014;-63
2024/04/08 05:02:43;;;;;;;0.73;0.73;;;16.50;80.10;;;;;;5459556;26;20059;-63
2024/04/08 05:05:09;;;;;;;1.40;1.05;;;16.50;80.20;;;;;;5453718;26;20075;-63
2024/04/08 05:07:35;;;;;;;1.70;0.85;;;16.60;80.40;;;;;;5470783;26;20445;-63
2024/04/08 05:10:00;;;;;;;0.82;0.70;;;16.50;80.40;;;;;;5420982;26;20002;-63
2024/04/08 05:12:26;;;;;;;1.60;1.02;;;16.50;80.40;;;;;;5449401;26;19999;-63
2024/04/08 05:14:51;;;;;;;1.95;0.75;;;16.50;80.40;;;;;;5450355;26;20524;-63
2024/04/08 05:17:17;;;;;;;1.42;0.70;;;16.50;80.40;;;;;;5458767;26;20009;-63
2024/04/08 05:19:43;;;;;;;1.58;0.82;;;16.50;80.40;;;;;;5453163;26;20076;-63
2024/04/08 05:22:16;;;;;;;3.92;1.30;;;16.50;80.50;;;;;;5451851;26;19999;-63
2024/04/08 05:24:41;;;;;;;0.60;0.55;;;16.50;80.40;;;;;;5448751;26;19998;-63
2024/04/08 05:27:07;;;;;;;1.63;0.80;;;16.50;80.50;;;;;;5466310;26;20150;-63
2024/04/08 05:29:33;;;;;;;1.77;1.17;;;16.60;80.50;;;;;;5466392;26;20022;-63
2024/04/08 05:31:58;;;;;;;0.68;0.50;;;16.60;80.50;;;;;;5446525;26;20432;-63
2024/04/08 05:34:24;;;;;;;1.55;1.05;;;16.60;80.40;;;;;;5423095;26;20009;-62
2024/04/08 05:36:50;;;;;;;2.90;0.93;;;16.60;80.40;;;;;;5450158;26;20006;-63
2024/04/08 05:39:15;;;;;;;0.70;0.70;;;16.60;80.50;;;;;;5457031;26;20035;-63
2024/04/08 05:41:41;;;;;;;1.05;0.93;;;16.60;80.60;;;;;;5443877;26;20003;-63
2024/04/08 05:44:07;;;;;;;3.25;2.20;;;16.60;80.60;;;;;;5447089;26;19999;-63
2024/04/08 05:46:33;;;;;;;1.63;0.57;;;16.60;80.70;;;;;;5450807;26;19999;-63
2024/04/08 05:48:58;;;;;;;1.73;1.05;;;16.60;80.70;;;;;;5463834;26;19999;-63
2024/04/08 05:51:26;;;;;;;1.33;1.23;;;16.50;80.60;;;;;;5457685;26;19998;-63
2024/04/08 05:53:55;;;;;;;0.77;0.77;;;16.50;80.80;;;;;;5415612;26;20017;-63
2024/04/08 05:56:21;;;;;;;1.15;0.82;;;16.40;81.00;;;;;;5468428;26;20457;-63
2024/04/08 05:58:46;;;;;;;1.50;1.02;;;16.40;81.10;;;;;;5415204;26;20017;-63
2024/04/08 06:01:12;;;;;;;0.80;0.80;;;16.40;81.20;;;;;;5449420;26;20007;-62
2024/04/08 06:03:38;;;;;;;1.58;0.82;;;16.40;81.30;;;;;;5438135;26;20591;-63
2024/04/08 06:06:06;;;;;;;1.63;1.05;;;16.40;81.20;;;;;;5412920;26;20447;-67
2024/04/08 06:08:32;;;;;;;7.95;1.25;;;16.40;81.20;;;;;;5452462;26;19995;-67
2024/04/08 06:11:02;;;;;;;0.90;0.80;;;16.40;81.30;;;;;;5430848;26;20013;-67
2024/04/08 06:13:30;;;;;;;1.63;1.00;;;16.40;81.30;;;;;;5447464;26;20085;-67
2024/04/08 06:15:59;;;;;;;1.13;0.95;;;16.40;81.30;;;;;;5465262;26;19995;-67
2024/04/08 06:18:24;;;;;;;3.30;1.15;;;16.50;81.40;;;;;;5395616;26;20345;-67
2024/04/08 06:20:54;;;;;;;0.93;0.85;;;16.50;81.40;;;;;;5447538;26;20002;-67
2024/04/08 06:23:21;;;;;;;3.17;1.80;;;16.50;81.40;;;;;;5452031;26;19999;-68
2024/04/08 06:25:46;;;;;;;5.07;1.38;;;16.50;81.30;;;;;;5423843;26;20034;-67
2024/04/08 06:28:12;;;;;;;1.45;1.25;;;16.50;81.30;;;;;;5447650;26;20007;-67
2024/04/08 06:30:38;;;;;;;1.30;1.20;;;16.60;81.30;;;;;;5438757;26;20465;-67
2024/04/08 06:33:03;;;;;;;1.80;1.10;;;16.70;81.20;;;;;;5399625;26;20448;-67
2024/04/08 06:35:29;;;;;;;1.38;1.20;;;16.70;81.10;;;;;;5473241;26;20341;-67
2024/04/08 06:37:55;;;;;;;1.70;1.20;;;16.80;81.00;;;;;;5415011;26;20018;-67
2024/04/08 06:40:20;;;;;;;2.17;1.20;;;16.80;80.90;;;;;;5462660;26;20406;-67
2024/04/08 06:42:46;;;;;;;3.88;0.88;;;16.80;81.00;;;;;;5446904;26;20015;-67
2024/04/08 06:45:12;;;;;;;1.75;1.00;;;16.80;81.00;;;;;;5457248;26;20021;-67
2024/04/08 06:47:37;;;;;;;1.85;0.80;;;16.90;81.00;;;;;;5455384;26;20010;-68
2024/04/08 06:50:03;;;;;;;1.42;1.10;;;16.90;81.00;;;;;;5461075;26;19994;-67
2024/04/08 06:52:29;;;;;;;2.15;1.25;;;17.00;81.00;;;;;;5455955;26;20097;-67
2024/04/08 06:54:55;;;;;;;0.88;0.82;;;17.00;80.80;;;;;;5461818;26;20089;-67
2024/04/08 06:57:21;;;;;;;1.77;1.15;;;17.10;80.70;;;;;;5444775;26;20015;-67
2024/04/08 06:59:47;;;;;;;3.05;1.08;;;17.20;80.60;;;;;;5431227;26;20331;-67
2024/04/08 07:02:12;;;;;;;4.78;1.73;;;17.30;80.40;;;;;;5450108;26;20075;-67
2024/04/08 07:04:38;;;;;;;0.70;0.70;;;17.30;80.40;;;;;;5450620;26;20046;-67
2024/04/08 07:07:04;;;;;;;1.80;0.82;;;17.30;80.40;;;;;;5466742;26;20020;-68
2024/04/08 07:09:29;;;;;;;2.15;0.65;;;17.40;80.30;;;;;;5460455;26;20018;-68
2024/04/08 07:11:58;;;;;;;0.68;0.55;;;17.50;80.30;;;;;;5414715;26;20014;-68
2024/04/08 07:14:24;;;;;;;0.98;0.73;;;17.50;80.00;;;;;;5447253;26;20501;-68
2024/04/08 07:16:50;;;;;;;2.45;1.30;;;17.50;80.00;;;;;;5415478;26;20281;-67
2024/04/08 07:19:15;;;;;;;1.38;0.80;;;17.50;80.00;;;;;;5432272;26;20007;-67
2024/04/08 07:21:41;;;;;;;2.03;1.25;;;17.40;80.00;;;;;;5447888;26;20068;-67
2024/04/08 07:24:07;;;;;;;2.10;1.48;;;17.40;80.20;;;;;;5449255;26;20075;-67
2024/04/08 07:26:33;;;;;;;1.35;0.70;;;17.40;80.30;;;;;;5460695;26;20006;-67
2024/04/08 07:28:59;;;;;;;1.00;0.70;;;17.40;80.30;;;;;;5422940;26;19999;-67
2024/04/08 07:31:24;;;;;;;0.98;0.80;;;17.40;80.20;;;;;;5450515;26;20020;-67
2024/04/08 07:33:50;;;;;;;3.28;0.85;;;17.30;80.20;;;;;;5460065;26;20013;-63
2024/04/08 07:36:16;;;;;;;2.50;0.95;;;17.30;80.20;;;;;;5451244;26;20318;-67
2024/04/08 07:38:41;;;;;;;1.73;1.23;;;17.30;80.20;;;;;;5436302;26;20350;-68
2024/04/08 07:41:07;;;;;;;1.13;0.82;;;17.30;80.20;;;;;;5455317;26;19999;-66
2024/04/08 07:43:34;;;;;;;2.15;0.90;;;17.30;80.30;;;;;;5436495;26;20079;-67
2024/04/08 07:46:00;;;;;;;1.42;0.90;;;17.40;80.10;;;;;;5436751;26;20002;-68
2024/04/08 07:48:26;;;;;;;4.07;1.10;;;17.50;80.00;;;;;;5455548;26;20468;-67
2024/04/08 07:50:52;;;;;;;1.73;1.42;;;17.50;79.90;;;;;;5454108;26;20006;-67
2024/04/08 07:53:17;;;;;;;1.35;0.80;;;17.50;79.80;;;;;;5449520;26;20011;-63
2024/04/08 07:55:44;;;;;;;1.17;0.93;;;17.60;79.80;;;;;;5457806;26;20010;-62
2024/04/08 07:58:10;;;;;;;1.10;0.82;;;17.60;79.60;;;;;;5450961;26;20449;-67
2024/04/08 08:00:36;;;;;;;1.00;0.90;;;17.70;79.60;;;;;;5425536;26;19995;-68
2024/04/08 08:03:02;;;;;;;1.23;0.90;;;17.80;79.50;;;;;;5419248;26;20019;-68
2024/04/08 08:05:28;;;;;;;1.17;0.65;;;17.90;79.20;;;;;;5468802;26;20480;-68
2024/04/08 08:07:53;;;;;;;1.92;0.80;;;17.90;79.00;;;;;;5454789;26;20532;-68
2024/04/08 08:10:19;;;;;;;1.42;1.05;;;18.10;78.90;;;;;;5443354;26;19995;-68
2024/04/08 08:12:45;;;;;;;1.92;0.77;;;18.20;78.60;;;;;;5447285;26;20341;-68
2024/04/08 08:15:11;;;;;;;1.45;0.73;;;18.40;78.50;;;;;;5438597;26;19999;-68
2024/04/08 08:17:36;;;;;;;0.65;0.65;;;18.40;78.30;;;;;;5441713;26;20031;-68
2024/04/08 08:20:04;;;;;;;3.72;1.00;;;18.50;78.10;;;;;;5436247;26;20007;-68
2024/04/08 08:22:30;;;;;;;1.30;0.70;;;18.50;78.10;;;;;;5437367;26;20495;-63
2024/04/08 08:24:56;;;;;;;2.83;0.82;;;18.50;78.10;;;;;;5439779;26;20010;-63
2024/04/08 08:27:22;;;;;;;1.15;0.63;;;18.50;78.00;;;;;;5443078;26;20398;-63
2024/04/08 08:29:51;;;;;;;1.85;0.70;;;18.50;78.00;;;;;;5376502;26;20603;-63
2024/04/08 08:32:17;;;;;;;1.00;0.60;;;18.60;77.90;;;;;;5446619;26;20013;-63
2024/04/08 08:34:42;;;;;;;0.80;0.57;;;18.70;77.70;;;;;;5446363;26;20014;-63
2024/04/08 08:37:09;;;;;;;0.68;0.68;;;18.90;77.40;;;;;;5444616;26;20002;-63
2024/04/08 08:39:37;;;;;;;0.52;0.50;;;19.00;77.00;;;;;;5447976;26;20011;-63
2024/04/08 08:42:06;;;;;;;3.15;1.17;;;19.00;76.80;;;;;;5411517;26;20050;-68
2024/04/08 08:44:32;;;;;;;3.60;0.98;;;19.10;76.60;;;;;;5364763;26;19995;-68
2024/04/08 08:46:59;;;;;;;1.15;0.68;;;19.20;76.90;;;;;;5449071;26;20013;-68
2024/04/08 08:49:28;;;;;;;0.40;0.40;;;19.30;76.40;;;;;;5449052;26;20031;-67
2024/04/08 08:51:54;;;;;;;1.38;0.52;;;19.40;76.40;;;;;;5441967;26;20001;-68
2024/04/08 08:54:20;;;;;;;0.60;0.60;;;19.40;76.20;;;;;;5423056;26;20513;-68
2024/04/08 08:56:46;;;;;;;0.68;0.68;;;19.50;76.20;;;;;;5414326;26;20006;-68
2024/04/08 08:59:14;;;;;;;2.35;1.00;;;19.50;76.10;;;;;;5440197;26;21081;-68
2024/04/08 09:01:41;;;;;;;3.72;1.88;;;19.50;76.00;;;;;;5441311;26;20009;-68
2024/04/08 09:04:07;;;;;;;0.68;0.60;;;19.60;75.70;;;;;;5441161;26;20007;-68
2024/04/08 09:06:33;;;;;;;2.05;0.80;;;19.60;75.60;;;;;;5441100;26;20498;-68
2024/04/08 09:08:59;;;;;;;1.52;1.00;;;19.70;75.60;;;;;;5440980;26;20434;-67
2024/04/08 09:11:24;;;;;;;5.50;1.67;;;19.80;75.30;;;;;;5447211;26;20406;-68
2024/04/08 09:13:50;;;;;;;1.88;1.17;;;19.80;75.00;;;;;;5443750;26;19995;-63
2024/04/08 09:16:22;;;;;;;2.38;1.63;;;19.80;75.10;;;;;;5438166;26;20003;-64
2024/04/08 09:18:48;;;;;;;2.08;1.40;;;19.90;74.90;;;;;;5411236;26;20034;-63
2024/04/08 09:21:13;;;;;;;3.17;1.80;;;20.00;74.40;;;;;;5439375;26;20095;-67
2024/04/08 09:23:42;;;;;;;1.65;1.30;;;20.00;74.10;;;;;;5417293;26;20105;-68
2024/04/08 09:26:08;;;;;;;2.85;1.55;;;20.10;74.10;;;;;;5417857;26;19999;-68
2024/04/08 09:28:35;;;;;;;1.77;1.58;;;20.20;74.20;;;;;;5423600;26;20004;-68
2024/04/08 09:31:01;;;;;;;1.58;1.35;;;20.20;72.80;;;;;;5414978;26;20303;-63
2024/04/08 09:33:28;;;;;;;1.40;1.30;;;20.20;72.70;;;;;;5456051;26;20002;-64
2024/04/08 09:35:55;;;;;;;1.15;1.05;;;20.10;72.80;;;;;;5454080;26;19998;-63
2024/04/08 09:38:22;;;;;;;1.95;1.50;;;20.00;72.80;;;;;;5419968;26;20432;-68
2024/04/08 09:40:50;;;;;;;2.80;1.63;;;19.90;73.10;;;;;;5454005;26;20531;-68
2024/04/08 09:43:16;;;;;;;1.63;1.45;;;19.90;73.10;;;;;;5446390;26;20781;-63
2024/04/08 09:45:42;;;;;;;2.55;1.17;;;19.90;73.30;;;;;;5382198;26;20002;-63
2024/04/08 09:48:13;;;;;;;1.67;1.40;;;20.00;73.30;;;;;;5441672;26;19999;-63
2024/04/08 09:50:41;;;;;;;2.17;1.15;;;20.00;73.10;;;;;;5438027;26;20099;-63
2024/04/08 09:53:08;;;;;;;2.35;1.55;;;20.10;73.20;;;;;;5463865;26;20016;-63
2024/04/08 09:55:38;;;;;;;2.17;1.30;;;20.20;73.10;;;;;;5446969;26;20460;-63
2024/04/08 09:58:08;;;;;;;3.50;1.73;;;20.40;73.00;;;;;;5464721;26;20003;-63
2024/04/08 10:00:36;;;;;;;3.80;1.58;;;20.70;72.50;;;;;;5434235;26;20017;-63
2024/04/08 10:03:08;;;;;;;1.95;1.60;;;20.90;72.10;;;;;;5400857;26;20075;-63
2024/04/08 10:05:34;;;;;;;2.60;1.67;;;21.10;71.80;;;;;;5467160;26;20005;-63
2024/04/08 10:08:01;;;;;;;2.28;1.33;;;21.20;71.40;;;;;;5449835;26;20013;-63
2024/04/08 10:10:28;;;;;;;1.88;1.25;;;21.30;71.30;;;;;;5467352;26;20014;-63
2024/04/08 10:12:58;;;;;;;3.00;1.90;;;21.30;71.30;;;;;;5467746;26;20006;-68
2024/04/08 10:15:31;;;;;;;3.38;1.98;;;21.40;71.10;;;;;;5451837;26;20003;-68
2024/04/08 10:17:57;;;;;;;3.15;1.05;;;21.50;70.90;;;;;;5440664;26;19999;-68
2024/04/08 10:20:24;;;;;;;1.42;1.10;;;21.60;70.80;;;;;;5469359;26;20447;-67
2024/04/08 10:22:50;;;;;;;1.50;1.30;;;21.80;70.10;;;;;;5443919;26;20003;-68
2024/04/08 10:25:37;;;;;;;1.30;0.88;;;21.80;69.10;;;;;;5413630;26;20013;-67
2024/04/08 10:28:15;;;;;;;1.88;1.10;;;21.70;69.10;;;;;;5450150;26;20018;-67
2024/04/08 10:30:43;;;;;;;2.08;1.05;;;21.70;68.90;;;;;;5423827;26;20007;-63
2024/04/08 10:33:13;;;;;;;1.23;0.93;;;21.70;68.60;;;;;;5440302;26;19999;-63
2024/04/08 10:35:39;;;;;;;2.15;1.13;;;21.80;68.80;;;;;;5417893;26;20379;-67
2024/04/08 10:38:08;;;;;;;1.90;1.10;;;22.00;68.50;;;;;;5445433;26;20453;-67
2024/04/08 10:40:33;;;;;;;1.73;1.17;;;22.10;68.10;;;;;;5443920;26;20002;-68
2024/04/08 10:42:59;;;;;;;1.25;1.10;;;22.30;67.80;;;;;;5447998;26;20439;-68
2024/04/08 10:45:25;;;;;;;1.30;1.20;;;22.30;67.00;;;;;;5441672;26;20002;-68
2024/04/08 10:47:58;;;;;;;1.83;1.27;;;22.30;67.10;;;;;;5439804;26;20407;-67
2024/04/08 10:50:24;;;;;;;1.92;1.27;;;22.50;67.20;;;;;;5453541;26;20009;-67
2024/04/08 10:52:50;;;;;;;3.47;2.08;;;22.60;66.80;;;;;;5448057;26;20007;-67
2024/04/08 10:55:16;;;;;;;1.63;1.52;;;22.70;66.40;;;;;;5417727;26;20482;-68
2024/04/08 10:57:41;;;;;;;1.20;1.10;;;22.70;66.30;;;;;;5416801;26;20581;-67
2024/04/08 11:00:07;;;;;;;1.42;1.30;;;22.70;66.10;;;;;;5454060;26;20552;-63
2024/04/08 11:02:33;;;;;;;2.47;1.95;;;22.60;65.90;;;;;;5416509;26;20334;-67
2024/04/08 11:05:00;;;;;;;1.70;1.33;;;22.40;66.10;;;;;;5442815;26;20011;-68
2024/04/08 11:07:29;;;;;;;4.72;1.92;;;22.40;66.20;;;;;;5391519;26;20002;-68
2024/04/08 11:09:55;;;;;;;1.30;1.20;;;22.40;65.90;;;;;;5420128;26;20003;-67
2024/04/08 11:12:20;;;;;;;1.63;1.52;;;22.40;66.30;;;;;;5393677;26;20018;-67
2024/04/08 11:14:47;;;;;;;1.88;1.33;;;22.30;66.10;;;;;;5441077;26;20017;-63
2024/04/08 11:17:15;;;;;;;4.25;1.85;;;22.40;66.10;;;;;;5412663;26;20003;-63
2024/04/08 11:19:43;;;;;;;1.60;1.42;;;22.30;65.90;;;;;;5444785;26;20329;-67
2024/04/08 11:22:09;;;;;;;3.10;1.70;;;22.30;66.00;;;;;;5471873;26;19998;-67
2024/04/08 11:24:40;;;;;;;2.38;1.70;;;22.30;66.20;;;;;;5442402;26;19999;-67
2024/04/08 11:27:09;;;;;;;1.70;1.40;;;22.40;66.20;;;;;;5422277;26;20481;-67
2024/04/08 11:29:35;;;;;;;1.83;1.70;;;22.50;65.90;;;;;;5449301;26;20002;-68
2024/04/08 11:32:01;;;;;;;2.63;1.50;;;22.60;65.60;;;;;;5453243;26;20468;-63
2024/04/08 11:34:27;;;;;;;2.72;1.63;;;22.60;65.40;;;;;;5425377;26;20017;-63
2024/04/08 11:36:54;;;;;;;1.65;1.52;;;22.50;65.50;;;;;;5462562;26;20033;-63
2024/04/08 11:39:19;;;;;;;2.55;2.03;;;22.30;65.80;;;;;;5443767;26;20013;-63
2024/04/08 11:41:45;;;;;;;2.15;1.75;;;22.10;66.20;;;;;;5464022;26;20026;-63
2024/04/08 11:44:10;;;;;;;2.60;2.10;;;22.00;66.60;;;;;;5446344;26;20549;-63
2024/04/08 11:46:36;;;;;;;1.98;1.75;;;21.80;67.00;;;;;;5451475;26;20587;-63
2024/04/08 11:49:02;;;;;;;3.58;1.85;;;21.70;67.20;;;;;;5450895;26;20007;-63
2024/04/08 11:51:28;;;;;;;2.40;1.67;;;21.70;67.40;;;;;;5423907;26;20013;-63
2024/04/08 11:53:54;;;;;;;2.22;2.03;;;21.60;67.60;;;;;;5443162;26;20403;-68
2024/04/08 11:56:19;;;;;;;2.40;2.20;;;21.50;67.70;;;;;;5420378;26;19995;-67
2024/04/08 11:58:45;;;;;;;2.33;1.85;;;21.30;67.70;;;;;;5400436;26;19990;-63
2024/04/08 12:01:11;;;;;;;2.55;2.03;;;21.20;67.80;;;;;;5417044;26;20441;-63
2024/04/08 12:03:36;;;;;;;2.30;1.50;;;21.10;68.00;;;;;;5436901;26;20010;-63
2024/04/08 12:06:03;;;;;;;2.08;1.90;;;21.10;68.10;;;;;;5405990;26;19998;-63
2024/04/08 12:08:31;;;;;;;2.50;1.85;;;21.00;68.10;;;;;;5449541;26;19999;-68
2024/04/08 12:10:57;;;;;;;3.08;2.17;;;21.10;68.20;;;;;;5410307;26;20466;-68
2024/04/08 12:13:24;;;;;;;2.13;1.80;;;21.20;68.20;;;;;;5438145;26;20456;-68
2024/04/08 12:15:50;;;;;;;3.05;2.20;;;21.30;68.00;;;;;;5427322;26;20007;-68
2024/04/08 12:18:16;;;;;;;2.38;2.10;;;21.40;67.80;;;;;;5455540;26;19995;-66
2024/04/08 12:20:41;;;;;;;2.55;1.98;;;21.50;67.60;;;;;;5418298;26;20006;-61
2024/04/08 12:23:11;;;;;;;2.90;1.92;;;21.60;67.50;;;;;;5418342;26;20400;-61
2024/04/08 12:25:37;;;;;;;3.45;2.42;;;21.60;67.30;;;;;;5446120;26;20006;-61
2024/04/08 12:28:04;;;;;;;3.33;2.88;;;21.50;67.60;;;;;;5448220;26;20011;-61
2024/04/08 12:30:30;;;;;;;2.95;2.35;;;21.40;67.80;;;;;;5448677;26;19998;-61
2024/04/08 12:32:56;;;;;;;3.28;2.50;;;21.40;67.90;;;;;;5449796;26;20352;-61
2024/04/08 12:35:22;;;;;;;2.95;2.30;;;21.30;68.30;;;;;;5449140;26;20337;-62
2024/04/08 12:37:48;;;;;;;5.22;3.08;;;21.20;68.40;;;;;;5448046;26;20022;-67
2024/04/08 12:40:13;;;;;;;4.72;2.53;;;21.10;68.40;;;;;;5416055;26;20066;-67
2024/04/08 12:42:39;;;;;;;3.42;2.28;;;21.00;68.70;;;;;;5445614;26;19995;-61
2024/04/08 12:45:04;;;;;;;3.50;2.53;;;21.00;69.00;;;;;;5420175;26;20448;-62